createdAt,value
2023-03-21T00:03:49.158Z,8.13
2023-03-21T00:06:16.666Z,7.97
2023-03-21T00:08:44.615Z,8.17
2023-03-21T00:11:12.961Z,8.03
2023-03-21T00:16:45.740Z,8.53
2023-03-21T00:19:15.851Z,8.57
2023-03-21T00:22:03.262Z,8.37
2023-03-21T00:24:31.728Z,8.47
2023-03-21T00:27:10.751Z,8.50
2023-03-21T00:29:46.739Z,8.97
2023-03-21T00:32:14.172Z,9.00
2023-03-21T00:34:57.667Z,8.60
2023-03-21T00:37:29.930Z,8.57
2023-03-21T00:39:57.432Z,9.20
2023-03-21T00:42:24.964Z,9.23
2023-03-21T00:44:52.428Z,7.83
2023-03-21T00:47:19.941Z,8.57
2023-03-21T00:52:40.941Z,9.00
2023-03-21T00:55:12.212Z,9.53
2023-03-21T00:57:39.925Z,9.33
2023-03-21T01:00:10.189Z,9.20
2023-03-21T01:02:37.852Z,9.37
2023-03-21T01:05:05.799Z,9.53
2023-03-21T01:07:33.249Z,9.67
2023-03-21T01:10:02.077Z,9.30
2023-03-21T01:12:29.515Z,9.53
2023-03-21T01:14:57.615Z,10.37
2023-03-21T01:20:27.639Z,10.50
2023-03-21T01:22:55.102Z,10.90
2023-03-21T01:25:23.886Z,10.37
2023-03-21T01:27:51.338Z,10.53
2023-03-21T01:30:22.834Z,10.60
2023-03-21T01:32:51.405Z,10.77
2023-03-21T01:35:18.843Z,10.83
2023-03-21T01:40:51.038Z,12.30
2023-03-21T01:43:26.567Z,11.87
2023-03-21T01:46:21.205Z,12.80
2023-03-21T01:49:04.660Z,13.30
2023-03-21T01:51:35.079Z,12.83
2023-03-21T01:54:03.643Z,12.10
2023-03-21T01:56:36.387Z,12.13
2023-03-21T02:02:23.068Z,12.80
2023-03-21T02:08:13.123Z,12.60
2023-03-21T02:10:44.330Z,13.40
2023-03-21T02:13:15.897Z,13.07
2023-03-21T02:15:48.130Z,13.20
2023-03-21T02:18:28.224Z,12.50
2023-03-21T02:24:25.787Z,13.40
2023-03-21T02:27:03.871Z,13.17
2023-03-21T02:30:05.514Z,13.23
2023-03-21T02:32:43.998Z,14.37
2023-03-21T02:35:26.050Z,13.50
2023-03-21T02:38:00.532Z,14.00
2023-03-21T02:40:34.028Z,13.60
2023-03-21T02:43:11.613Z,14.10
2023-03-21T02:45:48.647Z,14.00
2023-03-21T02:48:29.219Z,15.00
2023-03-21T02:51:00.166Z,15.07
2023-03-21T02:56:19.964Z,13.63
2023-03-21T02:58:53.448Z,14.70
2023-03-21T03:01:21.958Z,15.00
2023-03-21T03:03:49.919Z,15.63
2023-03-21T03:09:16.747Z,15.10
2023-03-21T03:11:45.777Z,15.47
2023-03-21T03:14:56.482Z,16.10
2023-03-21T03:17:39.193Z,15.33
2023-03-21T03:23:02.016Z,15.87
2023-03-21T03:25:42.055Z,16.43
2023-03-21T03:28:16.506Z,15.73
2023-03-21T03:30:54.243Z,15.87
2023-03-21T03:33:31.749Z,15.97
2023-03-21T03:36:05.520Z,16.17
2023-03-21T03:38:36.527Z,15.27
2023-03-21T03:43:56.742Z,14.67
2023-03-21T03:46:31.991Z,15.87
2023-03-21T03:49:02.525Z,15.90
2023-03-21T03:51:33.660Z,13.80
2023-03-21T03:57:13.880Z,13.90
2023-03-21T03:59:44.850Z,15.33
2023-03-21T04:02:22.189Z,14.63
2023-03-21T04:04:52.847Z,15.23
2023-03-21T04:07:21.350Z,15.70
2023-03-21T04:09:50.291Z,14.57
2023-03-21T04:15:34.037Z,14.37
2023-03-21T04:20:57.991Z,14.60
2023-03-21T04:23:29.899Z,14.17
2023-03-21T04:25:57.607Z,15.67
2023-03-21T04:28:37.204Z,15.27
2023-03-21T04:31:35.900Z,15.33
2023-03-21T04:34:12.260Z,15.40
2023-03-21T04:39:47.507Z,14.90
2023-03-21T04:42:15.572Z,15.00
2023-03-21T04:44:43.066Z,14.77
2023-03-21T04:47:13.153Z,16.00
2023-03-21T04:49:40.627Z,13.90
2023-03-21T04:55:10.115Z,14.30
2023-03-21T04:57:39.628Z,14.57
2023-03-21T05:00:13.586Z,14.67
2023-03-21T05:02:42.467Z,14.23
2023-03-21T05:05:11.976Z,14.80
2023-03-21T05:07:39.949Z,15.23
2023-03-21T05:10:10.050Z,14.53
2023-03-21T05:12:39.877Z,15.10
2023-03-21T05:15:08.917Z,14.40
2023-03-21T05:17:37.484Z,13.47
2023-03-21T05:20:09.585Z,14.33
2023-03-21T05:22:40.755Z,14.73
2023-03-21T05:25:12.169Z,15.20
2023-03-21T05:28:01.911Z,14.53
2023-03-21T05:33:19.566Z,13.67
2023-03-21T05:35:51.162Z,14.03
2023-03-21T05:38:18.791Z,14.07
2023-03-21T05:40:52.349Z,13.60
2023-03-21T05:43:19.927Z,13.93
2023-03-21T05:45:48.963Z,12.97
2023-03-21T05:48:18.456Z,13.20
2023-03-21T05:54:16.548Z,13.30
2023-03-21T05:59:52.659Z,13.00
2023-03-21T06:02:20.910Z,12.13
2023-03-21T06:04:49.590Z,12.47
2023-03-21T06:07:18.261Z,12.43
2023-03-21T06:09:47.022Z,11.63
2023-03-21T06:15:12.453Z,11.13
2023-03-21T06:17:53.922Z,10.77
2023-03-21T06:20:21.645Z,11.63
2023-03-21T06:22:53.407Z,10.27
2023-03-21T06:25:22.187Z,11.83
2023-03-21T06:27:49.849Z,11.97
2023-03-21T06:33:17.631Z,11.20
2023-03-21T06:35:45.681Z,12.30
2023-03-21T06:41:17.907Z,11.33
2023-03-21T06:43:54.362Z,11.90
2023-03-21T06:46:22.180Z,12.07
2023-03-21T06:48:49.787Z,11.53
2023-03-21T06:54:17.628Z,12.17
2023-03-21T06:56:59.899Z,11.10
2023-03-21T06:59:31.365Z,11.03
2023-03-21T07:02:02.470Z,10.87
2023-03-21T07:04:31.191Z,11.10
2023-03-21T07:06:59.049Z,11.70
2023-03-21T07:09:28.094Z,12.00
2023-03-21T07:11:59.708Z,10.70
2023-03-21T07:17:35.567Z,11.30
2023-03-21T07:20:04.551Z,12.07
2023-03-21T07:22:42.363Z,11.80
2023-03-21T07:25:10.827Z,12.13
2023-03-21T07:30:44.083Z,11.07
2023-03-21T07:33:11.755Z,11.17
2023-03-21T07:35:40.267Z,12.33
2023-03-21T07:38:08.048Z,12.37
2023-03-21T07:40:36.195Z,11.23
2023-03-21T07:43:04.141Z,11.70
2023-03-21T07:45:35.155Z,11.40
2023-03-21T07:48:04.204Z,10.87
2023-03-21T07:50:34.581Z,11.73
2023-03-21T07:53:02.684Z,11.80
2023-03-21T07:55:30.450Z,12.20
2023-03-21T07:57:58.338Z,11.20
2023-03-21T08:00:26.122Z,10.63
2023-03-21T08:02:58.553Z,11.00
2023-03-21T08:05:30.098Z,11.80
2023-03-21T08:07:57.986Z,11.57
2023-03-21T08:10:25.929Z,11.00
2023-03-21T08:12:53.562Z,10.13
2023-03-21T08:18:19.582Z,10.40
2023-03-21T08:20:52.918Z,10.03
2023-03-21T08:23:20.879Z,10.67
2023-03-21T08:25:52.675Z,9.63
2023-03-21T08:28:20.629Z,10.07
2023-03-21T08:30:48.384Z,11.57
2023-03-21T08:33:17.219Z,13.07
2023-03-21T08:38:49.012Z,12.00
2023-03-21T08:41:16.466Z,12.13
2023-03-21T08:46:46.582Z,11.60
2023-03-21T08:49:14.052Z,11.37
2023-03-21T08:51:41.489Z,11.23
2023-03-21T08:54:19.435Z,11.00
2023-03-21T08:56:46.930Z,11.23
2023-03-21T08:59:15.611Z,11.57
2023-03-21T09:04:31.829Z,11.27
2023-03-21T09:07:01.331Z,12.63
2023-03-21T09:09:30.124Z,12.03
2023-03-21T09:12:08.908Z,11.50
2023-03-21T09:14:36.448Z,11.63
2023-03-21T09:17:04.000Z,12.63
2023-03-21T09:19:31.960Z,12.57
2023-03-21T09:24:57.401Z,12.33
2023-03-21T09:27:28.012Z,13.13
2023-03-21T09:29:55.570Z,11.83
2023-03-21T09:32:23.550Z,12.90
2023-03-21T09:34:51.356Z,12.23
2023-03-21T09:37:18.795Z,11.83
2023-03-21T09:39:46.244Z,12.07
2023-03-21T09:42:26.558Z,12.37
2023-03-21T09:45:02.559Z,11.77
2023-03-21T09:47:32.992Z,12.90
2023-03-21T09:50:13.718Z,14.00
2023-03-21T09:52:47.975Z,11.37
2023-03-21T09:55:19.926Z,13.07
2023-03-21T09:57:51.581Z,13.97
2023-03-21T10:00:24.817Z,12.30
2023-03-21T10:03:03.001Z,13.90
2023-03-21T10:05:32.517Z,14.13
2023-03-21T10:08:04.675Z,12.80
2023-03-21T10:10:36.871Z,12.10
2023-03-21T10:13:06.320Z,12.63
2023-03-21T10:15:33.889Z,12.63
2023-03-21T10:18:02.785Z,12.00
2023-03-21T10:20:32.371Z,13.03
2023-03-21T10:23:01.176Z,12.83
2023-03-21T10:25:32.859Z,12.07
2023-03-21T10:28:01.106Z,13.00
2023-03-21T10:30:38.277Z,11.60
2023-03-21T10:33:09.482Z,12.57
2023-03-21T10:35:38.074Z,11.53
2023-03-21T10:41:08.567Z,11.20
2023-03-21T10:43:40.657Z,11.03
2023-03-21T10:46:13.680Z,10.83
2023-03-21T10:48:46.139Z,10.13
2023-03-21T10:51:18.396Z,10.13
2023-03-21T10:56:48.548Z,11.50
2023-03-21T10:59:20.580Z,11.57
2023-03-21T11:01:51.503Z,10.80
2023-03-21T11:04:21.917Z,10.10
2023-03-21T11:06:54.730Z,11.20
2023-03-21T11:09:24.886Z,10.70
2023-03-21T11:11:55.242Z,10.70
2023-03-21T11:17:30.277Z,11.30
2023-03-21T11:19:59.490Z,11.07
2023-03-21T11:22:29.885Z,10.23
2023-03-21T11:25:00.442Z,10.17
2023-03-21T11:27:30.040Z,11.33
2023-03-21T11:29:59.766Z,10.00
2023-03-21T11:32:34.781Z,9.40
2023-03-21T11:37:53.301Z,10.87
2023-03-21T11:40:23.163Z,10.67
2023-03-21T11:42:52.674Z,9.83
2023-03-21T11:45:21.950Z,11.33
2023-03-21T11:47:52.037Z,9.93
2023-03-21T11:50:21.972Z,10.17
2023-03-21T11:52:57.875Z,9.53
2023-03-21T11:55:41.734Z,9.70
2023-03-21T11:58:23.478Z,10.37
2023-03-21T12:00:57.151Z,9.13
2023-03-21T12:03:50.673Z,9.43
2023-03-21T12:06:23.976Z,9.40
2023-03-21T12:12:10.797Z,8.93
2023-03-21T12:17:46.247Z,8.50
2023-03-21T12:20:27.894Z,9.03
2023-03-21T12:23:03.586Z,8.53
2023-03-21T12:25:33.799Z,9.60
2023-03-21T12:28:09.625Z,9.53
2023-03-21T12:30:44.081Z,9.70
2023-03-21T12:33:19.648Z,9.47
2023-03-21T12:35:56.144Z,8.40
2023-03-21T12:38:26.029Z,8.50
2023-03-21T12:41:10.321Z,7.73
2023-03-21T12:43:43.345Z,7.77
2023-03-21T12:48:49.989Z,7.00
2023-03-21T12:51:20.847Z,8.90
2023-03-21T12:53:55.732Z,8.33
2023-03-21T12:56:25.499Z,8.23
2023-03-21T12:58:57.200Z,8.00
2023-03-21T13:04:33.274Z,7.97
2023-03-21T13:07:04.784Z,8.13
2023-03-21T13:09:38.049Z,7.53
2023-03-21T13:12:16.938Z,7.80
2023-03-21T13:14:48.647Z,7.67
2023-03-21T13:17:23.290Z,7.27
2023-03-21T13:19:55.572Z,7.17
2023-03-21T13:22:26.960Z,7.60
2023-03-21T13:24:59.046Z,7.03
2023-03-21T13:27:29.407Z,7.23
2023-03-21T13:30:00.920Z,7.40
2023-03-21T13:32:30.669Z,7.33
2023-03-21T13:35:00.998Z,7.40
2023-03-21T13:37:33.099Z,7.43
2023-03-21T13:40:02.270Z,6.57
2023-03-21T13:42:33.376Z,6.20
2023-03-21T13:45:02.718Z,6.80
2023-03-21T13:47:37.159Z,6.53
2023-03-21T13:50:34.934Z,6.37
2023-03-21T13:53:21.103Z,6.40
2023-03-21T13:55:59.605Z,5.87
2023-03-21T13:58:35.139Z,5.90
2023-03-21T14:01:24.004Z,5.90
2023-03-21T14:03:59.155Z,6.20
2023-03-21T14:06:33.015Z,5.70
2023-03-21T14:09:02.239Z,5.53
2023-03-21T14:11:30.866Z,6.13
2023-03-21T14:14:00.291Z,5.87
2023-03-21T14:16:29.322Z,5.70
2023-03-21T14:18:58.521Z,6.13
2023-03-21T14:21:28.035Z,6.17
2023-03-21T14:24:00.219Z,5.87
2023-03-21T14:26:32.280Z,5.83
2023-03-21T14:29:00.360Z,5.53
2023-03-21T14:31:28.015Z,5.37
2023-03-21T14:36:51.729Z,5.73
2023-03-21T14:39:27.270Z,5.80
2023-03-21T14:41:57.820Z,5.63
2023-03-21T14:44:27.561Z,5.67
2023-03-21T14:47:01.370Z,5.73
2023-03-21T14:49:54.133Z,5.23
2023-03-21T14:52:24.927Z,5.53
2023-03-21T14:57:42.004Z,5.20
2023-03-21T15:00:16.836Z,5.10
2023-03-21T15:02:45.850Z,5.20
2023-03-21T15:05:18.327Z,4.87
2023-03-21T15:07:53.907Z,5.17
2023-03-21T15:10:21.662Z,4.33
2023-03-21T15:12:55.676Z,4.53
2023-03-21T15:15:27.342Z,5.13
2023-03-21T15:17:56.840Z,4.63
2023-03-21T15:20:27.791Z,4.30
2023-03-21T15:26:07.856Z,5.07
2023-03-21T15:28:37.081Z,4.03
2023-03-21T15:31:05.485Z,4.47
2023-03-21T15:33:33.086Z,4.63
2023-03-21T15:36:00.989Z,4.23
2023-03-21T15:38:33.176Z,4.43
2023-03-21T15:41:17.788Z,4.30
2023-03-21T15:43:46.714Z,4.43
2023-03-21T15:46:15.646Z,4.20
2023-03-21T15:48:43.128Z,4.53
2023-03-21T15:51:16.624Z,4.40
2023-03-21T15:53:44.562Z,3.67
2023-03-21T15:56:15.943Z,4.00
2023-03-21T15:58:46.958Z,4.07
2023-03-21T16:01:17.064Z,3.83
2023-03-21T16:03:47.024Z,3.80
2023-03-21T16:06:19.782Z,3.90
2023-03-21T16:08:48.937Z,4.00
2023-03-21T16:11:24.517Z,4.40
2023-03-21T16:13:55.262Z,3.60
2023-03-21T16:16:24.823Z,4.13
2023-03-21T16:18:53.433Z,3.60
2023-03-21T16:21:22.517Z,4.17
2023-03-21T16:26:42.496Z,3.93
2023-03-21T16:29:13.783Z,4.10
2023-03-21T16:31:41.329Z,3.80
2023-03-21T16:34:08.849Z,3.90
2023-03-21T16:36:38.333Z,3.90
2023-03-21T16:42:10.600Z,3.73
2023-03-21T16:44:40.127Z,3.63
2023-03-21T16:47:15.502Z,4.00
2023-03-21T16:49:43.026Z,4.13
2023-03-21T16:54:58.622Z,4.20
2023-03-21T17:00:30.742Z,4.43
2023-03-21T17:03:01.768Z,4.23
2023-03-21T17:05:31.139Z,4.50
2023-03-21T17:08:01.946Z,4.20
2023-03-21T17:13:27.620Z,4.43
2023-03-21T17:15:59.059Z,4.70
2023-03-21T17:18:26.528Z,4.30
2023-03-21T17:20:53.987Z,4.97
2023-03-21T17:26:10.605Z,4.87
2023-03-21T17:28:38.302Z,4.90
2023-03-21T17:31:08.030Z,4.80
2023-03-21T17:33:35.579Z,4.50
2023-03-21T17:38:52.719Z,3.87
2023-03-21T17:41:20.827Z,4.50
2023-03-21T17:43:48.819Z,4.43
2023-03-21T17:46:19.237Z,4.40
2023-03-21T17:51:46.802Z,4.63
2023-03-21T17:54:14.275Z,4.13
2023-03-21T17:56:42.003Z,4.17
2023-03-21T17:59:13.607Z,4.17
2023-03-21T18:04:41.045Z,4.50
2023-03-21T18:07:14.010Z,4.47
2023-03-21T18:10:14.434Z,4.80
2023-03-21T18:12:41.953Z,4.50
2023-03-21T18:15:14.243Z,4.27
2023-03-21T18:17:42.858Z,4.33
2023-03-21T18:20:14.796Z,4.43
2023-03-21T18:22:43.664Z,4.40
2023-03-21T18:25:11.611Z,4.43
2023-03-21T18:28:02.090Z,4.60
2023-03-21T18:33:28.111Z,4.20
2023-03-21T18:36:00.440Z,4.47
2023-03-21T18:41:23.602Z,4.67
2023-03-21T18:44:15.397Z,4.60
2023-03-21T18:46:40.342Z,4.93
2023-03-21T18:49:51.999Z,4.97
2023-03-21T18:54:55.941Z,4.50
2023-03-21T18:57:39.372Z,4.73
2023-03-21T19:00:12.432Z,4.93
2023-03-21T19:02:45.628Z,4.83
2023-03-21T19:05:14.694Z,4.43
2023-03-21T19:07:42.267Z,4.60
2023-03-21T19:10:17.950Z,4.70
2023-03-21T19:15:35.244Z,5.10
2023-03-21T19:20:53.494Z,5.40
2023-03-21T19:23:21.922Z,5.37
2023-03-21T19:25:50.664Z,5.50
2023-03-21T19:28:18.086Z,5.20
2023-03-21T19:30:50.214Z,5.50
2023-03-21T19:36:22.775Z,5.23
2023-03-21T19:41:50.314Z,5.20
2023-03-21T19:44:17.999Z,5.40
2023-03-21T19:46:48.265Z,5.47
2023-03-21T19:49:19.854Z,5.80
2023-03-21T19:51:47.503Z,5.70
2023-03-21T19:54:17.184Z,5.40
2023-03-21T19:56:47.644Z,5.40
2023-03-21T20:02:35.126Z,5.90
2023-03-21T20:05:05.356Z,5.23
2023-03-21T20:07:33.148Z,5.50
2023-03-21T20:10:01.061Z,5.40
2023-03-21T20:12:53.646Z,5.30
2023-03-21T20:15:22.155Z,5.43
2023-03-21T20:17:53.556Z,5.93
2023-03-21T20:23:20.958Z,5.30
2023-03-21T20:25:49.000Z,6.13
2023-03-21T20:28:25.802Z,5.87
2023-03-21T20:30:58.574Z,5.70
2023-03-21T20:33:27.919Z,5.67
2023-03-21T20:38:49.906Z,6.10
2023-03-21T20:41:17.385Z,6.90
2023-03-21T20:44:34.313Z,6.10
2023-03-21T20:49:16.505Z,5.80
2023-03-21T20:54:32.118Z,5.77
2023-03-21T20:56:59.559Z,6.17
2023-03-21T21:02:26.418Z,5.80
2023-03-21T21:05:24.182Z,6.13
2023-03-21T21:07:43.381Z,6.43
2023-03-21T21:10:14.127Z,6.37
2023-03-21T21:13:13.578Z,6.67
2023-03-21T21:15:41.051Z,6.50
2023-03-21T21:18:09.820Z,6.97
2023-03-21T21:20:39.252Z,6.80
2023-03-21T21:23:09.509Z,6.70
2023-03-21T21:25:37.340Z,5.80
2023-03-21T21:28:28.732Z,6.43
2023-03-21T21:30:58.237Z,6.37
2023-03-21T21:36:16.079Z,6.93
2023-03-21T21:38:43.603Z,6.63
2023-03-21T21:41:17.477Z,6.53
2023-03-21T21:43:44.996Z,6.23
2023-03-21T21:46:12.536Z,6.03
2023-03-21T21:51:30.175Z,6.57
2023-03-21T21:53:57.693Z,5.70
2023-03-21T21:56:32.362Z,6.60
2023-03-21T21:59:01.995Z,6.30
2023-03-21T22:01:30.919Z,6.07
2023-03-21T22:04:06.013Z,6.17
2023-03-21T22:06:35.234Z,6.87
2023-03-21T22:09:03.859Z,6.87
2023-03-21T22:14:29.595Z,6.33
2023-03-21T22:16:58.057Z,6.40
2023-03-21T22:19:25.794Z,7.03
2023-03-21T22:24:57.103Z,6.30
2023-03-21T22:27:24.644Z,6.67
2023-03-21T22:29:52.085Z,6.60
2023-03-21T22:32:20.576Z,6.67
2023-03-21T22:34:48.053Z,6.10
2023-03-21T22:37:15.656Z,6.20
2023-03-21T22:39:43.388Z,6.40
2023-03-21T22:42:12.155Z,7.17
2023-03-21T22:44:39.562Z,6.77
2023-03-21T22:47:08.746Z,6.20
2023-03-21T22:49:36.399Z,6.87
2023-03-21T22:52:05.519Z,7.10
2023-03-21T22:57:36.946Z,6.60
2023-03-21T23:00:12.833Z,6.63
2023-03-21T23:02:40.596Z,6.97
2023-03-21T23:05:08.747Z,6.60
2023-03-21T23:07:36.280Z,6.40
2023-03-21T23:10:05.036Z,6.43
2023-03-21T23:15:46.050Z,7.40
2023-03-21T23:18:13.531Z,7.07
2023-03-21T23:20:41.512Z,6.43
2023-03-21T23:23:09.227Z,6.93
2023-03-21T23:25:37.762Z,7.00
2023-03-21T23:28:07.256Z,7.10
2023-03-21T23:30:34.720Z,6.70
2023-03-21T23:33:03.477Z,6.97
2023-03-21T23:35:35.288Z,7.20
2023-03-21T23:38:02.959Z,7.03
2023-03-21T23:43:32.642Z,7.10
2023-03-21T23:46:00.305Z,6.80
2023-03-21T23:48:29.440Z,6.60
2023-03-21T23:50:57.331Z,7.63
2023-03-21T23:53:25.074Z,7.00
2023-03-21T23:55:52.617Z,7.30
2023-03-21T23:58:20.379Z,7.07
